aviador You're here:

LYUZ Decoded Metar

UZICE PONIKVE in SERBIA
Report Time2017-08-22 11:00:00
UTC Time2017-08-22 11:12:28
Flight Rules vfr VFR
Wind300° at 07 kt
W.Rank300° ranks 2
Current wind is below 300° avg. (7.0)
Visibility9999 m
Phenomena:N/A
Clouds:Scattered 020 Hf
Expected CloudBase > 3,600 ft AGL from Temp-Dew spread
CeilingNone
Temp17°C (ISA +8)
Dew Point08°C (56% RH)
AAT14.1°C
QNH1021 hPa
Density Alt3,829 ft
Elevation3,012 ft
Report Wrong Elevation
Raw Report
METAR LYUZ 221100Z 30007KT 250V340 9999 SCT020 17/08 Q1021=

Extra information for LYUZ:More info

Metar Taf Metar & Taf Last 4 Metars F.Rules Stats Wind Profile Meteogram Temp Stats Airport Information Weather charts Add Link Nearby VenuesMetar ALERT Operation Metar Decoded Social comments